Time;durP1;ratioP1;P1;durP2;ratioP2;P2;SDS_P1;SDS_P2;PMS_P1;PMS_P2;Temp;Humidity;BMP_temperature;BMP_pressure;BME280_temperature;BME280_humidity;BME280_pressure;Samples;Min_cycle;Max_cycle;Signal;HPM_P1;HPM_P2
2023/03/26 00:00:17;;;;;;;23.73;5.68;;;;;;;7.95;88.93;100902.22;6101396;19;20006;-78
2023/03/26 00:02:23;;;;;;;16.63;4.88;;;;;;;7.97;88.87;100902.19;6101463;19;20122;-78
2023/03/26 00:04:32;;;;;;;14.63;4.28;;;;;;;7.96;88.99;100901.34;6094486;19;20639;-78
2023/03/26 00:06:40;;;;;;;15.00;5.38;;;;;;;7.98;89.06;100914.34;6100269;19;20499;-77
2023/03/26 00:08:48;;;;;;;13.55;4.18;;;;;;;8.02;88.79;100902.91;6096769;19;20875;-78
2023/03/26 00:10:53;;;;;;;21.33;4.93;;;;;;;8.01;89.20;100906.44;6097796;19;20006;-78
2023/03/26 00:12:58;;;;;;;22.98;5.85;;;;;;;8.04;89.30;100901.13;6101826;19;20039;-78
2023/03/26 00:15:03;;;;;;;31.38;6.32;;;;;;;8.03;89.36;100905.50;6102375;19;20716;-78
2023/03/26 00:17:08;;;;;;;20.30;5.30;;;;;;;8.03;89.67;100896.78;6104011;19;20014;-78
2023/03/26 00:19:14;;;;;;;27.17;6.15;;;;;;;8.02;90.15;100888.06;6103355;19;20609;-78
2023/03/26 00:21:25;;;;;;;22.35;5.28;;;;;;;8.02;89.98;100880.22;6099700;19;20035;-79
2023/03/26 00:23:34;;;;;;;24.83;6.07;;;;;;;8.01;89.74;100878.50;6103862;19;20020;-79
2023/03/26 00:25:42;;;;;;;26.83;5.68;;;;;;;8.02;89.77;100881.97;6102905;19;20056;-79
2023/03/26 00:27:48;;;;;;;24.73;5.82;;;;;;;8.03;90.33;100875.84;6103958;19;20019;-77
2023/03/26 00:29:55;;;;;;;27.92;6.88;;;;;;;8.04;90.11;100867.94;6107259;19;20626;-78
2023/03/26 00:31:59;;;;;;;32.17;7.28;;;;;;;8.05;90.28;100868.81;6085953;19;20054;-77
2023/03/26 00:34:04;;;;;;;25.60;7.85;;;;;;;8.03;90.72;100862.75;6114983;19;20006;-73
2023/03/26 00:36:13;;;;;;;35.63;7.45;;;;;;;8.03;90.83;100860.13;6132593;19;20010;-72
2023/03/26 00:38:21;;;;;;;22.20;7.40;;;;;;;8.05;90.65;100855.72;6130179;19;20660;-74
2023/03/26 00:40:26;;;;;;;32.63;7.93;;;;;;;8.00;90.90;100861.06;6124823;19;20071;-73
2023/03/26 00:42:31;;;;;;;26.60;6.30;;;;;;;7.98;90.29;100851.56;6127510;19;20017;-71
2023/03/26 00:44:36;;;;;;;25.08;6.75;;;;;;;7.96;90.71;100853.38;6121820;19;20024;-73
2023/03/26 00:46:41;;;;;;;38.25;8.25;;;;;;;7.96;90.69;100848.16;6121030;19;20022;-74
2023/03/26 00:48:46;;;;;;;26.10;7.07;;;;;;;7.95;91.19;100854.28;6108399;19;20007;-74
2023/03/26 00:50:52;;;;;;;29.52;7.50;;;;;;;7.91;91.08;100843.91;6109164;19;20002;-74
2023/03/26 00:52:57;;;;;;;33.55;7.10;;;;;;;7.91;91.53;100835.19;6102797;19;20015;-75
2023/03/26 00:55:05;;;;;;;25.45;6.32;;;;;;;7.90;91.29;100836.13;6102421;19;20735;-74
2023/03/26 00:57:11;;;;;;;22.20;5.70;;;;;;;7.88;91.30;100830.91;6102506;19;20098;-75
2023/03/26 00:59:30;;;;;;;35.45;7.40;;;;;;;7.89;91.03;100826.53;6102116;19;20018;-73
2023/03/26 01:01:35;;;;;;;24.80;6.97;;;;;;;7.88;91.64;100825.69;6091356;19;20038;-73
2023/03/26 01:03:42;;;;;;;23.48;5.70;;;;;;;7.85;90.97;100819.69;6083110;19;20026;-73
2023/03/26 01:06:06;;;;;;;31.95;7.57;;;;;;;7.78;91.14;100824.22;6103983;19;20011;-74
2023/03/26 01:08:21;;;;;;;31.17;7.22;;;;;;;7.78;91.52;100834.69;6088463;19;20102;-73
2023/03/26 01:10:37;;;;;;;34.53;6.80;;;;;;;7.74;91.85;100827.84;6099581;19;20011;-75
2023/03/26 01:12:42;;;;;;;36.85;8.10;;;;;;;7.72;91.95;100824.41;6101063;19;20094;-73
2023/03/26 01:14:49;;;;;;;30.88;6.70;;;;;;;7.68;91.41;100828.88;6099745;19;20047;-73
2023/03/26 01:16:56;;;;;;;29.45;6.95;;;;;;;7.60;91.97;100815.16;6100581;19;20035;-73
2023/03/26 01:19:01;;;;;;;30.13;7.00;;;;;;;7.61;91.80;100816.00;6097336;19;20038;-73
2023/03/26 01:21:08;;;;;;;24.13;6.25;;;;;;;7.55;91.78;100813.56;6098781;19;20736;-74
2023/03/26 01:23:13;;;;;;;33.97;7.35;;;;;;;7.52;92.22;100806.66;6099105;19;20683;-73
2023/03/26 01:25:24;;;;;;;23.70;5.45;;;;;;;7.45;92.18;100806.00;6094321;19;20006;-73
2023/03/26 01:27:41;;;;;;;37.33;6.90;;;;;;;7.41;92.27;100798.28;6098322;19;20018;-73
2023/03/26 01:29:52;;;;;;;27.05;6.00;;;;;;;7.36;92.48;100790.56;6099530;19;20264;-73
2023/03/26 01:32:08;;;;;;;25.38;5.85;;;;;;;7.32;92.43;100796.78;6100078;19;20043;-73
2023/03/26 01:34:23;;;;;;;24.25;6.13;;;;;;;7.30;92.56;100785.50;6098782;19;20022;-72
2023/03/26 01:36:37;;;;;;;28.88;7.45;;;;;;;7.33;93.10;100774.97;6095142;19;20007;-73
2023/03/26 01:38:47;;;;;;;37.15;7.63;;;;;;;7.40;93.57;100775.66;6099846;19;20002;-73
2023/03/26 01:41:01;;;;;;;35.13;6.63;;;;;;;7.35;93.33;100775.78;6100179;19;20023;-74
2023/03/26 01:43:13;;;;;;;31.80;7.30;;;;;;;7.26;93.51;100770.81;6099925;19;20018;-73
2023/03/26 01:45:22;;;;;;;21.25;6.18;;;;;;;7.21;92.94;100775.28;6096239;19;20308;-72
2023/03/26 01:47:27;;;;;;;25.58;5.90;;;;;;;7.17;93.55;100768.47;6098751;19;20106;-73
2023/03/26 01:49:33;;;;;;;23.35;5.60;;;;;;;7.14;93.95;100765.94;6100626;19;20011;-73
2023/03/26 01:51:38;;;;;;;35.38;7.43;;;;;;;7.16;93.97;100764.13;6101891;19;20044;-74
2023/03/26 01:53:45;;;;;;;36.95;6.22;;;;;;;7.15;94.16;100760.66;6099714;19;20515;-73
2023/03/26 01:56:03;;;;;;;33.55;6.25;;;;;;;7.10;94.07;100762.53;6099460;19;20695;-73
2023/03/26 01:58:14;;;;;;;27.00;5.55;;;;;;;7.04;93.96;100763.56;6102172;19;20940;-74
2023/03/26 02:00:24;;;;;;;31.98;6.50;;;;;;;6.99;93.65;100757.59;6100246;19;20290;-73
2023/03/26 02:02:37;;;;;;;35.85;6.93;;;;;;;7.03;94.53;100758.41;6102378;19;20021;-73
2023/03/26 02:04:52;;;;;;;23.15;5.85;;;;;;;6.95;94.00;100753.38;6102305;19;20487;-73
2023/03/26 02:07:04;;;;;;;24.45;7.10;;;;;;;6.94;94.97;100751.63;6100768;19;20018;-72
2023/03/26 02:09:17;;;;;;;29.00;8.27;;;;;;;6.94;94.52;100763.84;6100676;19;20027;-73
2023/03/26 02:11:25;;;;;;;44.90;7.00;;;;;;;7.06;95.39;100749.59;6056506;19;20343;-73
2023/03/26 02:13:39;;;;;;;29.50;6.15;;;;;;;7.09;95.48;100746.91;6099008;19;20021;-73
2023/03/26 02:15:56;;;;;;;29.80;6.45;;;;;;;7.15;95.24;100746.72;6099954;19;20014;-72
2023/03/26 02:18:02;;;;;;;29.38;7.15;;;;;;;7.22;95.44;100748.28;6102952;19;20018;-73
2023/03/26 02:20:10;;;;;;;35.45;7.47;;;;;;;7.22;94.99;100738.69;6101722;19;20014;-73
2023/03/26 02:22:16;;;;;;;32.00;7.75;;;;;;;7.30;95.30;100733.22;6100930;19;20711;-73
2023/03/26 02:24:22;;;;;;;39.50;7.53;;;;;;;7.31;95.09;100731.47;6101995;19;20486;-73
2023/03/26 02:26:32;;;;;;;30.77;6.88;;;;;;;7.31;95.21;100729.72;6100570;19;20094;-73
2023/03/26 02:28:38;;;;;;;31.52;7.30;;;;;;;7.31;94.82;100724.47;6101254;19;20602;-72
2023/03/26 02:30:46;;;;;;;38.25;8.95;;;;;;;7.29;95.15;100728.88;6100925;19;20027;-74
2023/03/26 02:32:51;;;;;;;41.17;8.93;;;;;;;7.26;95.09;100721.13;6097376;19;20010;-72
2023/03/26 02:34:56;;;;;;;35.65;8.90;;;;;;;7.29;95.18;100723.66;6073769;19;20006;-73
2023/03/26 02:37:01;;;;;;;32.40;7.53;;;;;;;7.31;95.03;100721.88;6101541;19;20018;-73
2023/03/26 02:39:06;;;;;;;34.28;6.68;;;;;;;7.34;95.00;100721.78;6101376;19;20014;-73
2023/03/26 02:41:11;;;;;;;29.23;6.78;;;;;;;7.34;94.70;100713.94;6101374;19;20039;-72
2023/03/26 02:43:18;;;;;;;28.00;6.40;;;;;;;7.33;94.61;100709.63;6097122;19;20043;-73
2023/03/26 02:45:23;;;;;;;25.08;7.05;;;;;;;7.33;95.05;100703.53;6100621;19;20020;-74
2023/03/26 02:47:27;;;;;;;24.77;7.10;;;;;;;7.32;95.01;100700.06;6101268;19;20043;-75
2023/03/26 02:49:33;;;;;;;29.73;7.68;;;;;;;7.32;94.59;100699.19;6099684;19;20010;-73
2023/03/26 02:51:38;;;;;;;28.17;7.57;;;;;;;7.32;94.78;100700.06;6074799;19;20035;-73
2023/03/26 02:53:42;;;;;;;35.92;6.68;;;;;;;7.38;94.69;100696.41;6098675;19;20014;-73
2023/03/26 02:55:48;;;;;;;28.42;7.03;;;;;;;7.37;94.77;100695.56;6098375;19;20015;-73
2023/03/26 02:57:52;;;;;;;24.42;8.05;;;;;;;7.38;94.67;100699.88;6098908;19;20579;-74
2023/03/26 03:00:01;;;;;;;35.33;8.38;;;;;;;7.38;94.58;100699.03;6074607;19;20018;-73
2023/03/26 03:02:06;;;;;;;40.67;9.18;;;;;;;7.36;94.91;100701.69;6097313;19;20015;-74
2023/03/26 03:04:11;;;;;;;34.22;7.82;;;;;;;7.39;94.98;100698.13;6103052;19;20015;-74
2023/03/26 03:06:17;;;;;;;33.28;8.80;;;;;;;7.40;94.57;100697.25;6100023;19;20047;-75
2023/03/26 03:08:25;;;;;;;44.80;8.40;;;;;;;7.40;94.57;100682.41;6074074;19;20003;-74
2023/03/26 03:10:33;;;;;;;32.75;7.18;;;;;;;7.46;94.53;100692.66;6096855;19;20014;-74
2023/03/26 03:12:38;;;;;;;39.30;8.38;;;;;;;7.46;94.68;100686.59;6098140;19;20023;-74
2023/03/26 03:14:45;;;;;;;33.13;8.70;;;;;;;7.48;94.58;100690.03;6098555;19;20010;-74
2023/03/26 03:16:52;;;;;;;25.67;6.43;;;;;;;7.48;94.32;100680.41;6096253;19;20010;-74
2023/03/26 03:19:00;;;;;;;23.20;7.20;;;;;;;7.50;94.60;100676.88;6098096;19;20010;-74
2023/03/26 03:21:08;;;;;;;25.83;7.28;;;;;;;7.50;94.58;100666.41;6098473;19;20017;-74
2023/03/26 03:23:13;;;;;;;23.85;5.78;;;;;;;7.46;94.45;100665.66;6056318;19;20715;-74
2023/03/26 03:25:21;;;;;;;23.33;6.43;;;;;;;7.46;94.21;100661.28;6105297;19;20017;-75
2023/03/26 03:27:26;;;;;;;22.98;6.60;;;;;;;7.48;93.93;100662.09;6116024;19;20492;-74
2023/03/26 03:29:32;;;;;;;30.77;7.53;;;;;;;7.47;93.81;100656.91;6113754;19;20675;-74
2023/03/26 03:31:40;;;;;;;23.02;6.00;;;;;;;7.46;93.59;100661.28;6090068;19;20015;-74
2023/03/26 03:33:50;;;;;;;37.33;7.20;;;;;;;7.45;93.65;100659.59;6110130;19;20013;-74
2023/03/26 03:35:54;;;;;;;21.23;5.53;;;;;;;7.45;93.50;100656.97;6119881;19;20265;-74
2023/03/26 03:38:00;;;;;;;20.65;6.22;;;;;;;7.42;93.80;100656.19;6118558;19;20018;-74
2023/03/26 03:40:07;;;;;;;22.23;6.25;;;;;;;7.44;93.59;100657.00;6118132;19;20705;-74
2023/03/26 03:42:13;;;;;;;24.15;6.10;;;;;;;7.39;93.81;100654.53;6120322;19;20011;-74
2023/03/26 03:44:18;;;;;;;21.30;5.45;;;;;;;7.37;93.44;100639.78;6119818;19;20021;-75
2023/03/26 03:46:22;;;;;;;20.27;5.45;;;;;;;7.36;93.43;100644.16;6116513;19;20137;-74
2023/03/26 03:48:28;;;;;;;25.70;6.43;;;;;;;7.35;93.35;100633.78;6114421;19;20070;-74
2023/03/26 03:50:35;;;;;;;26.70;5.85;;;;;;;7.33;93.59;100636.44;6101516;19;20026;-74
2023/03/26 03:52:40;;;;;;;23.05;5.20;;;;;;;7.33;93.69;100635.56;6099730;19;20002;-74
2023/03/26 03:54:46;;;;;;;30.55;6.25;;;;;;;7.34;93.44;100640.75;6098486;19;20021;-74
2023/03/26 03:56:51;;;;;;;29.45;5.38;;;;;;;7.35;93.31;100639.84;6097744;19;20040;-74
2023/03/26 03:58:57;;;;;;;20.85;5.68;;;;;;;7.37;93.41;100630.22;6097843;19;20439;-74
2023/03/26 04:01:03;;;;;;;23.05;4.90;;;;;;;7.38;93.34;100628.44;6094893;19;20017;-75
2023/03/26 04:03:08;;;;;;;21.10;5.57;;;;;;;7.36;93.06;100628.50;6096106;19;20039;-74
2023/03/26 04:05:14;;;;;;;20.98;4.68;;;;;;;7.37;93.38;100625.00;6106239;19;20507;-74
2023/03/26 04:07:22;;;;;;;21.13;5.55;;;;;;;7.37;93.29;100624.09;6093130;19;20003;-75
2023/03/26 04:09:27;;;;;;;22.05;4.88;;;;;;;7.37;93.00;100619.75;6095061;19;20025;-74
2023/03/26 04:11:31;;;;;;;24.50;7.25;;;;;;;7.38;93.34;100618.84;6097167;19;20007;-74
2023/03/26 04:13:36;;;;;;;20.10;5.95;;;;;;;7.41;93.31;100610.91;6097939;19;20011;-74
2023/03/26 04:15:41;;;;;;;27.92;6.10;;;;;;;7.42;93.07;100611.75;6095378;19;20015;-74
2023/03/26 04:17:46;;;;;;;19.35;5.53;;;;;;;7.42;93.40;100607.38;6097657;19;20021;-74
2023/03/26 04:19:51;;;;;;;21.40;6.32;;;;;;;7.42;93.44;100601.28;6097874;19;20306;-74
2023/03/26 04:22:01;;;;;;;20.73;6.68;;;;;;;7.42;93.27;100607.38;6075064;19;20079;-74
2023/03/26 04:24:09;;;;;;;19.75;4.90;;;;;;;7.41;93.19;100599.59;6096642;19;20022;-74
2023/03/26 04:26:18;;;;;;;19.55;5.53;;;;;;;7.40;93.32;100590.06;6096461;19;20770;-74
2023/03/26 04:28:30;;;;;;;17.65;5.50;;;;;;;7.40;93.72;100587.44;6096369;19;20011;-74
2023/03/26 04:30:37;;;;;;;24.70;5.43;;;;;;;7.41;93.60;100582.16;6094840;19;20730;-74
2023/03/26 04:32:43;;;;;;;15.90;5.55;;;;;;;7.42;93.63;100573.38;6096140;19;20010;-74
2023/03/26 04:34:48;;;;;;;22.98;5.97;;;;;;;7.41;93.59;100569.06;6095707;19;20035;-74
2023/03/26 04:36:54;;;;;;;20.73;5.10;;;;;;;7.41;93.47;100568.22;6093620;19;20010;-74
2023/03/26 04:39:02;;;;;;;16.83;5.50;;;;;;;7.45;93.62;100570.69;6096153;19;20022;-74
2023/03/26 04:41:11;;;;;;;22.50;5.82;;;;;;;7.47;93.21;100562.78;6095915;19;20693;-74
2023/03/26 04:43:18;;;;;;;24.35;6.00;;;;;;;7.44;93.22;100562.91;6093319;19;20018;-74
2023/03/26 04:45:22;;;;;;;29.35;5.32;;;;;;;7.44;93.45;100563.75;6096381;19;20014;-74
2023/03/26 04:47:30;;;;;;;21.70;5.57;;;;;;;7.45;93.50;100554.13;6094898;19;20039;-74
2023/03/26 04:49:35;;;;;;;19.88;6.15;;;;;;;7.47;93.74;100547.09;6094996;19;20065;-74
2023/03/26 04:51:43;;;;;;;19.55;5.05;;;;;;;7.48;93.73;100546.22;6095427;19;20035;-74
2023/03/26 04:53:54;;;;;;;21.48;5.18;;;;;;;7.51;93.75;100545.25;6095143;19;20535;-74
2023/03/26 04:56:05;;;;;;;21.05;5.82;;;;;;;7.50;93.73;100531.31;6095895;19;20010;-74
2023/03/26 04:58:12;;;;;;;15.98;5.53;;;;;;;7.48;93.72;100539.22;6099723;19;20102;-73
2023/03/26 05:00:19;;;;;;;19.48;4.75;;;;;;;7.53;93.54;100530.34;6101868;19;20011;-74
2023/03/26 05:02:24;;;;;;;15.00;5.03;;;;;;;7.51;93.76;100526.97;6101926;19;20010;-74
2023/03/26 05:04:32;;;;;;;22.38;4.85;;;;;;;7.52;93.77;100526.03;6103236;19;20019;-74
2023/03/26 05:06:38;;;;;;;20.40;4.78;;;;;;;7.52;93.70;100518.19;6101764;19;20010;-74
2023/03/26 05:08:43;;;;;;;22.50;4.90;;;;;;;7.46;93.98;100522.72;6101452;19;20039;-74
2023/03/26 05:10:48;;;;;;;32.63;6.07;;;;;;;7.52;93.84;100519.06;6102034;19;20035;-74
2023/03/26 05:12:53;;;;;;;18.58;5.95;;;;;;;7.56;93.61;100505.00;6098668;19;20031;-75
2023/03/26 05:15:00;;;;;;;22.70;5.45;;;;;;;7.57;94.16;100500.59;6101011;19;20455;-74
2023/03/26 05:17:09;;;;;;;23.05;5.88;;;;;;;7.60;93.94;100500.50;6079210;19;20010;-74
2023/03/26 05:19:14;;;;;;;23.23;5.55;;;;;;;7.54;93.93;100496.34;6102436;19;20006;-73
2023/03/26 05:21:19;;;;;;;19.60;5.45;;;;;;;7.59;93.87;100493.56;6096044;19;20017;-74
2023/03/26 05:23:26;;;;;;;25.55;6.85;;;;;;;7.56;93.96;100491.06;6099714;19;20035;-73
2023/03/26 05:25:31;;;;;;;23.67;5.55;;;;;;;7.50;93.99;100488.63;6101000;19;20025;-74
2023/03/26 05:27:36;;;;;;;17.95;6.35;;;;;;;7.50;94.19;100491.25;6099019;19;20508;-74
2023/03/26 05:29:40;;;;;;;22.52;7.53;;;;;;;7.47;94.24;100489.59;6100976;19;20039;-73
2023/03/26 05:31:48;;;;;;;23.75;6.63;;;;;;;7.46;94.29;100491.34;6101396;19;20021;-74
2023/03/26 05:33:53;;;;;;;27.90;5.90;;;;;;;7.40;94.77;100488.94;6100466;19;20039;-73
2023/03/26 05:36:05;;;;;;;25.13;5.68;;;;;;;7.43;94.06;100488.84;6076963;19;20015;-73
2023/03/26 05:38:10;;;;;;;22.83;5.95;;;;;;;7.44;94.44;100490.53;6098790;19;20014;-73
2023/03/26 05:40:16;;;;;;;26.70;7.25;;;;;;;7.41;94.41;100485.41;6098621;19;20800;-73
2023/03/26 05:42:22;;;;;;;28.90;6.50;;;;;;;7.36;94.19;100476.88;6099494;19;20017;-73
2023/03/26 05:44:27;;;;;;;27.73;6.25;;;;;;;7.43;94.32;100483.63;6100198;19;20013;-73
2023/03/26 05:46:31;;;;;;;28.42;6.85;;;;;;;7.42;94.24;100479.28;6099450;19;20014;-74
2023/03/26 05:48:39;;;;;;;21.48;7.40;;;;;;;7.46;94.07;100483.50;6101603;19;20257;-73
2023/03/26 05:50:44;;;;;;;21.30;6.30;;;;;;;7.45;94.10;100476.59;6100600;19;20010;-73
2023/03/26 05:52:49;;;;;;;16.95;5.43;;;;;;;7.46;93.98;100480.91;6098956;19;20007;-73
2023/03/26 05:54:54;;;;;;;24.55;6.60;;;;;;;7.41;93.73;100480.19;6100563;19;20003;-73
2023/03/26 05:56:59;;;;;;;21.80;6.75;;;;;;;7.40;93.88;100473.28;6098963;19;20671;-73
2023/03/26 05:59:04;;;;;;;21.38;6.38;;;;;;;7.33;94.07;100471.75;6098128;19;20002;-73
2023/03/26 06:01:15;;;;;;;28.48;7.25;;;;;;;7.37;94.38;100477.72;6099365;19;20683;-73
2023/03/26 06:03:21;;;;;;;23.45;6.68;;;;;;;7.31;94.14;100470.09;6095747;19;20014;-75
2023/03/26 06:05:31;;;;;;;22.42;7.55;;;;;;;7.32;94.48;100470.06;6099138;19;20565;-73
2023/03/26 06:07:36;;;;;;;24.38;7.97;;;;;;;7.34;94.61;100468.22;6094490;19;21383;-73
2023/03/26 06:09:42;;;;;;;22.58;7.18;;;;;;;7.37;94.33;100469.88;6100122;19;20055;-73
2023/03/26 06:11:47;;;;;;;20.67;6.68;;;;;;;7.31;94.44;100463.09;6097875;19;20090;-73
2023/03/26 06:13:52;;;;;;;32.28;8.45;;;;;;;7.31;94.69;100468.31;6079817;19;20018;-73
2023/03/26 06:15:57;;;;;;;34.50;8.00;;;;;;;7.36;94.27;100461.19;6098010;19;20011;-75
2023/03/26 06:18:02;;;;;;;26.00;8.38;;;;;;;7.32;94.18;100459.59;6099109;19;20780;-73
2023/03/26 06:20:09;;;;;;;24.73;7.13;;;;;;;7.35;94.47;100454.28;6099937;19;20019;-73
2023/03/26 06:22:17;;;;;;;29.90;8.43;;;;;;;7.36;94.24;100455.97;6097778;19;20018;-73
2023/03/26 06:24:22;;;;;;;25.60;8.95;;;;;;;7.35;94.17;100453.41;6102820;19;20018;-73
2023/03/26 06:26:27;;;;;;;28.30;7.70;;;;;;;7.37;94.47;100451.59;6111067;19;20481;-74
2023/03/26 06:28:32;;;;;;;25.45;8.30;;;;;;;7.29;94.48;100454.44;6114367;19;20014;-74
2023/03/26 06:30:37;;;;;;;22.60;8.13;;;;;;;7.34;94.57;100451.69;6109148;19;20011;-74
2023/03/26 06:32:44;;;;;;;30.30;8.85;;;;;;;7.31;94.67;100457.03;6112899;19;20027;-74
2023/03/26 06:34:49;;;;;;;24.02;9.23;;;;;;;7.40;94.18;100456.75;6113947;19;20014;-75
2023/03/26 06:36:54;;;;;;;27.80;8.95;;;;;;;7.38;94.00;100454.16;6118252;19;20106;-74
2023/03/26 06:39:02;;;;;;;34.38;9.70;;;;;;;7.36;94.08;100455.13;6117001;19;20011;-74
2023/03/26 06:41:11;;;;;;;25.63;9.37;;;;;;;7.29;94.39;100457.06;6122228;19;20328;-74
2023/03/26 06:43:16;;;;;;;30.95;9.27;;;;;;;7.38;93.96;100458.53;6116700;19;20317;-75
2023/03/26 06:45:21;;;;;;;28.23;9.02;;;;;;;7.37;94.20;100456.81;6115587;19;20353;-75
2023/03/26 06:47:25;;;;;;;35.67;8.85;;;;;;;7.38;94.00;100459.38;6100984;19;20035;-75
2023/03/26 06:49:30;;;;;;;22.95;9.52;;;;;;;7.39;93.94;100458.47;6102587;19;20006;-75
2023/03/26 06:51:37;;;;;;;27.17;10.15;;;;;;;7.37;94.48;100451.59;6099893;19;20022;-75
2023/03/26 06:53:42;;;;;;;25.00;8.57;;;;;;;7.36;94.18;100455.97;6099968;19;20018;-75
2023/03/26 06:55:50;;;;;;;31.80;10.10;;;;;;;7.40;94.23;100456.75;6100008;19;20098;-75
2023/03/26 06:57:57;;;;;;;31.20;8.73;;;;;;;7.45;94.09;100452.19;6098125;19;20007;-74
2023/03/26 07:00:02;;;;;;;26.33;9.38;;;;;;;7.48;93.76;100452.94;6096553;19;20111;-75
2023/03/26 07:02:07;;;;;;;28.75;9.35;;;;;;;7.48;94.21;100455.56;6097111;19;20011;-74
2023/03/26 07:04:12;;;;;;;23.85;9.02;;;;;;;7.51;94.19;100453.75;6094066;19;20014;-74
2023/03/26 07:06:18;;;;;;;37.78;10.27;;;;;;;7.52;94.11;100456.31;6097438;19;20031;-74
2023/03/26 07:08:23;;;;;;;26.30;9.07;;;;;;;7.45;94.24;100445.22;6097986;19;20106;-74
2023/03/26 07:10:30;;;;;;;23.15;8.13;;;;;;;7.45;94.07;100444.34;6098293;19;20016;-74
2023/03/26 07:12:41;;;;;;;25.80;8.48;;;;;;;7.50;94.57;100447.66;6076127;19;20062;-74
2023/03/26 07:14:46;;;;;;;27.73;8.95;;;;;;;7.52;94.53;100442.38;6096924;19;20111;-74
2023/03/26 07:16:51;;;;;;;26.63;9.45;;;;;;;7.50;94.46;100445.03;6096271;19;20015;-74
2023/03/26 07:18:56;;;;;;;21.85;8.70;;;;;;;7.50;94.36;100441.56;6095371;19;20043;-74
2023/03/26 07:21:02;;;;;;;21.80;8.07;;;;;;;7.50;95.00;100452.88;6095187;19;20655;-75
2023/03/26 07:23:07;;;;;;;19.17;6.97;;;;;;;7.54;94.46;100448.41;6096674;19;20010;-74
2023/03/26 07:25:14;;;;;;;25.45;8.20;;;;;;;7.51;94.83;100454.59;6097672;19;20082;-75
2023/03/26 07:27:37;;;;;;;31.77;9.07;;;;;;;7.55;94.72;100443.13;6094513;19;20011;-74
2023/03/26 07:29:50;;;;;;;27.23;8.43;;;;;;;7.65;94.71;100451.50;6098210;19;20006;-74
2023/03/26 07:32:02;;;;;;;24.83;9.02;;;;;;;7.64;94.25;100444.59;6093891;19;20010;-74
2023/03/26 07:34:20;;;;;;;24.08;8.88;;;;;;;7.65;93.95;100443.66;6098262;19;20562;-74
2023/03/26 07:36:31;;;;;;;28.00;8.48;;;;;;;7.61;94.41;100439.44;6096937;19;20010;-74
2023/03/26 07:38:50;;;;;;;18.65;7.78;;;;;;;7.63;94.69;100451.53;6097159;19;20006;-74
2023/03/26 07:41:04;;;;;;;24.55;7.53;;;;;;;7.62;94.74;100442.00;6100068;19;20002;-74
2023/03/26 07:43:20;;;;;;;25.73;7.63;;;;;;;7.68;94.70;100444.41;6097185;19;20014;-74
2023/03/26 07:45:36;;;;;;;17.88;7.65;;;;;;;7.59;94.26;100441.28;6068862;19;20011;-74
2023/03/26 07:47:45;;;;;;;17.08;6.80;;;;;;;7.62;95.00;100436.78;6097243;19;20011;-74
2023/03/26 07:49:51;;;;;;;20.17;7.38;;;;;;;7.65;95.11;100438.44;6096773;19;20011;-74
2023/03/26 07:52:01;;;;;;;20.90;6.75;;;;;;;7.65;94.92;100435.81;6096114;19;20014;-73
2023/03/26 07:54:07;;;;;;;21.20;6.50;;;;;;;7.75;94.66;100431.97;6096396;19;20646;-74
2023/03/26 07:56:17;;;;;;;22.25;7.82;;;;;;;7.81;94.62;100438.75;6095629;19;20699;-74
2023/03/26 07:58:41;;;;;;;20.85;8.00;;;;;;;7.85;94.25;100438.59;6095819;19;20499;-73
2023/03/26 08:00:53;;;;;;;20.65;7.13;;;;;;;7.77;94.40;100435.41;6096109;19;20493;-73
2023/03/26 08:03:25;;;;;;;18.58;6.60;;;;;;;7.87;94.12;100431.56;6097367;19;20015;-73
2023/03/26 08:05:35;;;;;;;22.08;6.95;;;;;;;7.86;93.80;100432.44;6095069;19;20017;-73
2023/03/26 08:07:51;;;;;;;18.95;6.15;;;;;;;7.86;94.09;100434.22;6096754;19;20018;-73
2023/03/26 08:10:05;;;;;;;17.52;6.20;;;;;;;7.83;94.25;100435.16;6095561;19;20014;-72
2023/03/26 08:12:20;;;;;;;16.52;6.18;;;;;;;7.83;93.99;100435.16;6093468;19;20249;-73
2023/03/26 08:14:44;;;;;;;19.65;6.50;;;;;;;7.85;93.90;100435.97;6098010;19;20229;-73
2023/03/26 08:16:57;;;;;;;20.02;6.18;;;;;;;7.90;93.88;100430.59;6095133;19;20017;-73
2023/03/26 08:19:11;;;;;;;19.03;5.90;;;;;;;7.94;93.83;100420.84;6095325;19;20010;-73
2023/03/26 08:21:20;;;;;;;21.67;7.28;;;;;;;7.99;93.91;100434.63;6072565;19;21056;-73
2023/03/26 08:23:31;;;;;;;19.52;6.07;;;;;;;7.99;93.54;100434.63;6096577;19;20035;-73
2023/03/26 08:25:41;;;;;;;18.30;6.00;;;;;;;7.99;93.81;100432.00;6097432;19;20030;-73
2023/03/26 08:27:57;;;;;;;16.63;5.85;;;;;;;7.94;93.79;100441.78;6097015;19;20566;-73
2023/03/26 08:30:10;;;;;;;19.08;5.47;;;;;;;7.88;94.24;100445.47;6097840;19;20015;-75
2023/03/26 08:32:20;;;;;;;19.10;6.38;;;;;;;7.98;94.17;100440.75;6096714;19;20691;-73
2023/03/26 08:34:25;;;;;;;23.73;6.35;;;;;;;7.94;94.44;100431.31;6101321;19;20011;-74
2023/03/26 08:36:30;;;;;;;16.35;6.10;;;;;;;8.00;94.32;100431.09;6101343;19;20215;-73
2023/03/26 08:38:35;;;;;;;22.85;6.57;;;;;;;7.96;94.31;100434.75;6100974;19;20861;-74
2023/03/26 08:41:24;;;;;;;20.48;6.85;;;;;;;7.91;94.44;100435.75;6102422;19;20011;-74
2023/03/26 08:43:51;;;;;;;21.95;6.45;;;;;;;7.92;94.01;100439.22;6096212;19;20015;-73
2023/03/26 08:46:42;;;;;;;20.17;6.28;;;;;;;8.03;94.09;100441.44;6102505;19;20026;-73
2023/03/26 08:49:16;;;;;;;19.00;6.03;;;;;;;8.02;93.45;100435.34;6101086;19;20014;-74
2023/03/26 08:51:41;;;;;;;;;;;;;;;8.15;93.67;100433.16;6097071;19;20567;-73
2023/03/26 08:54:17;;;;;;;18.70;5.75;;;;;;;8.08;93.21;100429.91;6104392;19;19918;-73
2023/03/26 08:56:28;;;;;;;23.40;5.88;;;;;;;8.18;93.36;100438.25;6099114;19;20034;-73
2023/03/26 08:59:07;;;;;;;20.33;5.53;;;;;;;8.29;92.86;100438.75;6102206;19;20026;-73
2023/03/26 09:01:37;;;;;;;16.02;4.35;;;;;;;8.25;93.33;100429.28;6101184;19;20762;-73
2023/03/26 09:04:07;;;;;;;17.75;5.00;;;;;;;8.13;92.46;100429.72;6096906;19;20014;-72
2023/03/26 09:06:28;;;;;;;20.40;6.20;;;;;;;8.21;93.00;100435.53;6099630;19;20573;-73
2023/03/26 09:09:10;;;;;;;16.48;5.65;;;;;;;8.26;93.22;100438.81;6097864;19;20230;-73
2023/03/26 09:11:55;;;;;;;18.77;5.57;;;;;;;8.31;93.45;100430.81;6095478;19;20007;-73
2023/03/26 09:14:23;;;;;;;14.85;6.10;;;;;;;8.24;93.30;100439.78;6098074;19;20017;-75
2023/03/26 09:16:45;;;;;;;19.45;5.40;;;;;;;8.20;93.62;100433.84;6099954;19;20546;-73
2023/03/26 09:19:22;;;;;;;16.65;4.95;;;;;;;8.30;92.98;100444.81;6100664;19;20011;-74
2023/03/26 09:21:55;;;;;;;13.70;5.18;;;;;;;8.16;92.76;100441.84;6096508;19;20089;-74
2023/03/26 09:24:36;;;;;;;18.77;5.88;;;;;;;8.18;93.03;100438.25;6109703;19;20043;-76
2023/03/26 09:26:50;;;;;;;19.92;6.90;;;;;;;8.11;93.33;100439.41;6117046;19;20010;-73
2023/03/26 09:29:37;;;;;;;18.40;7.10;;;;;;;8.15;93.67;100441.00;6114577;19;20085;-74
2023/03/26 09:32:32;;;;;;;17.25;5.88;;;;;;;8.22;93.58;100442.50;6121073;19;20027;-74
2023/03/26 09:35:00;;;;;;;16.20;6.50;;;;;;;8.22;93.63;100445.09;6124290;19;20007;-75
2023/03/26 09:37:20;;;;;;;16.35;6.10;;;;;;;8.16;93.58;100450.53;6120184;19;20014;-75
2023/03/26 09:39:47;;;;;;;16.13;6.53;;;;;;;8.08;94.15;100458.69;6122446;19;20011;-74
2023/03/26 09:42:05;;;;;;;19.33;6.10;;;;;;;8.08;93.99;100458.69;6120996;19;20010;-74
2023/03/26 09:44:49;;;;;;;12.55;5.68;;;;;;;8.13;94.00;100464.59;6113343;19;20094;-73
2023/03/26 09:47:24;;;;;;;15.18;5.43;;;;;;;8.24;93.41;100461.63;6104383;19;20005;-76
2023/03/26 09:49:44;;;;;;;15.90;6.90;;;;;;;8.17;93.82;100451.41;6101385;19;20035;-74
2023/03/26 09:52:40;;;;;;;19.33;7.50;;;;;;;8.25;94.22;100463.31;6103282;19;20558;-74
2023/03/26 09:55:19;;;;;;;23.38;9.80;;;;;;;8.31;93.99;100465.69;6097108;19;20010;-74
2023/03/26 09:57:35;;;;;;;22.30;8.80;;;;;;;8.23;93.76;100465.13;6096448;19;20014;-75
2023/03/26 10:00:12;;;;;;;24.45;9.13;;;;;;;8.13;93.58;100485.53;6098743;19;20028;-75
2023/03/26 10:02:40;;;;;;;17.80;8.05;;;;;;;8.02;93.85;100473.75;6098804;19;20014;-76
2023/03/26 10:05:10;;;;;;;22.23;10.20;;;;;;;7.81;93.69;100484.06;6103048;19;20026;-75
2023/03/26 10:07:37;;;;;;;25.77;10.95;;;;;;;7.83;94.46;100482.25;6077516;19;20054;-77